Time;durP1;ratioP1;P1;durP2;ratioP2;P2;SDS_P1;SDS_P2;PMS_P1;PMS_P2;Temp;Humidity;BMP_temperature;BMP_pressure;BME280_temperature;BME280_humidity;BME280_pressure;Samples;Min_cycle;Max_cycle;Signal;HPM_P1;HPM_P2
2022/05/21 00:02:00;;;;;;;;;4.00;4.00;;;;;;;;5063777;28;45466;-66
2022/05/21 00:04:25;;;;;;;;;5.50;4.50;;;;;;;;5070878;27;45550;-67
2022/05/21 00:06:51;;;;;;;;;3.25;3.25;;;;;;;;5059133;28;46289;-67
2022/05/21 00:09:18;;;;;;;;;3.00;3.00;;;;;;;;5073845;27;45445;-68
2022/05/21 00:11:44;;;;;;;;;3.00;3.00;;;;;;;;5063542;28;45486;-66
2022/05/21 00:14:09;;;;;;;;;4.00;3.00;;;;;;;;5062919;28;45421;-66
2022/05/21 00:16:34;;;;;;;;;2.00;2.00;;;;;;;;5071482;28;46306;-66
2022/05/21 00:18:59;;;;;;;;;3.75;3.75;;;;;;;;5057219;28;45577;-66
2022/05/21 00:21:25;;;;;;;;;5.50;4.75;;;;;;;;5075505;28;45464;-67
2022/05/21 00:23:50;;;;;;;;;4.25;4.25;;;;;;;;5062526;28;45440;-67
2022/05/21 00:26:16;;;;;;;;;2.75;2.75;;;;;;;;5038384;28;47820;-67
2022/05/21 00:28:42;;;;;;;;;4.00;4.00;;;;;;;;5062657;28;45482;-67
2022/05/21 00:31:08;;;;;;;;;5.00;3.00;;;;;;;;5055999;28;45428;-66
2022/05/21 00:33:34;;;;;;;;;4.50;4.00;;;;;;;;5076724;28;45530;-66
2022/05/21 00:36:00;;;;;;;;;3.25;3.25;;;;;;;;5060310;28;45481;-67
2022/05/21 00:38:25;;;;;;;;;4.50;3.75;;;;;;;;5065062;28;45378;-67
2022/05/21 00:40:52;;;;;;;;;2.00;2.00;;;;;;;;5070762;28;45408;-67
2022/05/21 00:43:36;;;;;;;;;3.25;3.25;;;;;;;;5054119;28;45401;-67
2022/05/21 00:46:02;;;;;;;;;8.75;4.75;;;;;;;;5056991;28;47392;-65
2022/05/21 00:48:27;;;;;;;;;3.00;3.00;;;;;;;;5061534;28;45531;-67
2022/05/21 00:50:52;;;;;;;;;2.75;2.00;;;;;;;;5068551;28;45404;-66
2022/05/21 00:53:18;;;;;;;;;4.25;3.00;;;;;;;;5066699;28;45450;-64
2022/05/21 00:55:44;;;;;;;;;6.75;4.00;;;;;;;;5059097;28;46300;-65
2022/05/21 01:00:57;;;;;;;;;2.50;2.50;;;;;;;;5062160;28;45462;-67
2022/05/21 01:03:23;;;;;;;;;3.50;3.50;;;;;;;;5074684;28;45355;-67
2022/05/21 01:05:49;;;;;;;;;6.50;4.50;;;;;;;;5061596;28;46130;-67
2022/05/21 01:08:15;;;;;;;;;6.25;3.00;;;;;;;;5063113;28;45462;-66
2022/05/21 01:10:44;;;;;;;;;6.00;5.25;;;;;;;;5071163;28;45367;-65
2022/05/21 01:13:13;;;;;;;;;3.75;3.75;;;;;;;;5054800;28;45597;-66
2022/05/21 01:15:51;;;;;;;;;5.25;4.25;;;;;;;;5076552;28;45449;-67
2022/05/21 01:18:16;;;;;;;;;5.25;3.00;;;;;;;;5060105;27;45465;-64
2022/05/21 01:20:47;;;;;;;;;5.50;4.75;;;;;;;;5066486;28;45434;-65
2022/05/21 01:23:12;;;;;;;;;3.75;2.25;;;;;;;;5066781;27;45438;-65
2022/05/21 01:25:38;;;;;;;;;4.00;4.00;;;;;;;;5057737;28;46039;-66
2022/05/21 01:28:04;;;;;;;;;4.25;3.00;;;;;;;;5071900;27;45424;-67
2022/05/21 01:30:38;;;;;;;;;4.50;4.25;;;;;;;;5060949;28;45466;-66
2022/05/21 01:33:05;;;;;;;;;6.00;5.00;;;;;;;;5069804;28;45408;-65
2022/05/21 01:35:31;;;;;;;;;2.50;2.00;;;;;;;;5062317;27;47151;-67
2022/05/21 01:37:56;;;;;;;;;6.50;5.00;;;;;;;;5058614;28;45613;-67
2022/05/21 01:40:22;;;;;;;;;3.75;3.75;;;;;;;;5045861;28;45405;-66
2022/05/21 01:44:37;;;;;;;;;6.25;6.00;;;;;;;;5059005;28;45414;-67
2022/05/21 01:45:32;;;;;;;;;6.00;4.50;;;;;;;;5060758;28;45486;-66
2022/05/21 01:47:57;;;;;;;;;3.00;3.00;;;;;;;;5056967;28;45469;-67
2022/05/21 01:50:22;;;;;;;;;4.25;4.25;;;;;;;;5058791;28;45371;-67
2022/05/21 01:52:48;;;;;;;;;3.75;3.75;;;;;;;;5056952;27;45722;-67
2022/05/21 01:55:13;;;;;;;;;4.00;3.75;;;;;;;;5061647;28;46281;-67
2022/05/21 01:57:38;;;;;;;;;4.50;4.50;;;;;;;;5062906;28;45414;-66
2022/05/21 02:00:03;;;;;;;;;3.00;3.00;;;;;;;;5058025;28;45504;-66
2022/05/21 02:02:29;;;;;;;;;4.75;4.00;;;;;;;;5040127;28;45352;-67
2022/05/21 02:04:54;;;;;;;;;6.25;3.50;;;;;;;;5057136;28;46309;-67
2022/05/21 02:07:19;;;;;;;;;5.00;3.00;;;;;;;;5054921;27;45642;-66
2022/05/21 02:09:44;;;;;;;;;4.00;2.50;;;;;;;;5069266;28;45478;-66
2022/05/21 02:12:14;;;;;;;;;3.00;3.00;;;;;;;;5057586;28;45484;-67
2022/05/21 02:14:39;;;;;;;;;4.00;4.00;;;;;;;;5058126;28;46226;-66
2022/05/21 02:17:05;;;;;;;;;2.25;2.25;;;;;;;;5056593;28;45272;-67
2022/05/21 02:19:30;;;;;;;;;2.25;2.25;;;;;;;;5056283;28;45380;-67
2022/05/21 02:21:56;;;;;;;;;3.00;3.00;;;;;;;;5038580;28;45325;-67
2022/05/21 02:24:21;;;;;;;;;2.50;2.50;;;;;;;;5057686;28;49430;-67
2022/05/21 02:26:47;;;;;;;;;3.75;2.00;;;;;;;;5057668;28;45412;-67
2022/05/21 02:29:12;;;;;;;;;3.00;3.00;;;;;;;;5056885;28;45498;-67
2022/05/21 02:31:37;;;;;;;;;3.00;3.00;;;;;;;;5056636;28;45451;-67
2022/05/21 02:34:02;;;;;;;;;3.00;3.00;;;;;;;;5054914;28;45423;-67
2022/05/21 02:39:28;;;;;;;;;5.75;2.25;;;;;;;;5057436;28;45490;-67
2022/05/21 02:41:54;;;;;;;;;6.25;4.75;;;;;;;;5056509;28;45444;-67
2022/05/21 02:44:19;;;;;;;;;3.00;3.00;;;;;;;;5057651;28;45431;-67
2022/05/21 02:46:44;;;;;;;;;3.75;3.75;;;;;;;;5062297;28;45477;-67
2022/05/21 02:49:10;;;;;;;;;5.50;4.75;;;;;;;;5053500;28;45299;-67
2022/05/21 02:51:35;;;;;;;;;4.75;4.00;;;;;;;;5057106;28;45427;-68
2022/05/21 02:54:00;;;;;;;;;4.00;4.00;;;;;;;;5056901;28;47311;-67
2022/05/21 02:56:25;;;;;;;;;3.00;2.00;;;;;;;;5057750;28;45388;-67
2022/05/21 02:58:50;;;;;;;;;4.25;4.25;;;;;;;;5061827;28;45461;-67
2022/05/21 03:01:15;;;;;;;;;4.50;4.50;;;;;;;;5053150;28;45353;-67
2022/05/21 03:03:41;;;;;;;;;3.75;3.00;;;;;;;;5059172;28;46319;-67
2022/05/21 03:06:06;;;;;;;;;2.25;2.25;;;;;;;;5053279;28;45479;-67
2022/05/21 03:11:15;;;;;;;;;4.25;4.00;;;;;;;;5056473;28;45351;-67
2022/05/21 03:13:40;;;;;;;;;2.25;2.25;;;;;;;;5058440;28;47095;-67
2022/05/21 03:16:05;;;;;;;;;2.00;2.00;;;;;;;;5053078;28;45571;-67
2022/05/21 03:18:31;;;;;;;;;5.50;3.00;;;;;;;;5040712;28;45539;-67
2022/05/21 03:20:56;;;;;;;;;5.25;5.00;;;;;;;;5057422;28;45510;-68
2022/05/21 03:23:21;;;;;;;;;3.50;3.00;;;;;;;;5056000;28;47186;-67
2022/05/21 03:25:47;;;;;;;;;6.00;4.50;;;;;;;;5057581;28;45506;-67
2022/05/21 03:28:13;;;;;;;;;3.00;3.00;;;;;;;;5051977;28;45315;-67
2022/05/21 03:30:39;;;;;;;;;2.00;2.00;;;;;;;;5066523;28;45590;-67
2022/05/21 03:33:04;;;;;;;;;4.00;3.00;;;;;;;;5058051;28;46050;-67
2022/05/21 03:35:32;;;;;;;;;2.25;2.25;;;;;;;;5057464;28;45403;-67
2022/05/21 03:37:57;;;;;;;;;3.00;1.00;;;;;;;;5057394;28;45495;-67
2022/05/21 03:40:24;;;;;;;;;4.75;3.25;;;;;;;;5054114;28;45210;-67
2022/05/21 03:42:49;;;;;;;;;2.25;2.25;;;;;;;;5057112;28;45405;-67
2022/05/21 03:45:15;;;;;;;;;2.50;2.50;;;;;;;;5057566;28;45350;-66
2022/05/21 03:47:41;;;;;;;;;3.00;1.75;;;;;;;;5057610;28;45629;-67
2022/05/21 03:50:07;;;;;;;;;5.50;2.00;;;;;;;;5057293;28;45339;-67
2022/05/21 03:52:32;;;;;;;;;0.25;0.25;;;;;;;;5055486;28;46299;-66
2022/05/21 03:54:58;;;;;;;;;2.00;2.00;;;;;;;;5054435;28;45534;-67
2022/05/21 03:57:23;;;;;;;;;1.50;1.50;;;;;;;;5059330;28;45430;-68
2022/05/21 03:59:48;;;;;;;;;2.00;2.00;;;;;;;;5056784;28;45535;-67
2022/05/21 04:02:13;;;;;;;;;6.00;2.00;;;;;;;;5056867;28;47062;-66
2022/05/21 04:04:39;;;;;;;;;4.00;2.50;;;;;;;;5056120;27;45378;-67
2022/05/21 04:07:04;;;;;;;;;3.00;3.00;;;;;;;;5053563;28;45486;-67
2022/05/21 04:09:30;;;;;;;;;3.25;3.00;;;;;;;;5058839;28;45415;-67
2022/05/21 04:11:56;;;;;;;;;2.00;2.00;;;;;;;;5056590;28;46056;-67
2022/05/21 04:14:27;;;;;;;;;4.00;2.25;;;;;;;;5056368;28;45369;-67
2022/05/21 04:16:52;;;;;;;;;3.50;2.75;;;;;;;;5056881;28;45359;-67
2022/05/21 04:19:17;;;;;;;;;3.50;3.50;;;;;;;;5055242;27;45343;-67
2022/05/21 04:21:42;;;;;;;;;4.00;4.00;;;;;;;;5061667;28;46281;-67
2022/05/21 04:24:08;;;;;;;;;0.25;0.25;;;;;;;;5060210;28;45458;-67
2022/05/21 04:26:33;;;;;;;;;2.25;2.25;;;;;;;;5060473;28;45481;-67
2022/05/21 04:28:58;;;;;;;;;3.75;2.50;;;;;;;;5059886;28;45543;-67
2022/05/21 04:31:23;;;;;;;;;3.00;3.00;;;;;;;;5056801;28;45464;-65
2022/05/21 04:33:50;;;;;;;;;3.00;2.00;;;;;;;;5060462;28;45493;-66
2022/05/21 04:36:18;;;;;;;;;5.75;4.25;;;;;;;;5062906;27;45269;-65
2022/05/21 04:38:43;;;;;;;;;4.75;3.50;;;;;;;;5060993;28;45875;-65
2022/05/21 04:41:10;;;;;;;;;2.75;2.00;;;;;;;;5060283;28;46222;-66
2022/05/21 04:43:35;;;;;;;;;4.00;2.75;;;;;;;;5058462;28;45380;-65
2022/05/21 04:46:00;;;;;;;;;6.00;4.00;;;;;;;;5056806;28;45311;-66
2022/05/21 04:48:25;;;;;;;;;6.25;4.00;;;;;;;;5062096;28;45408;-66
2022/05/21 04:50:51;;;;;;;;;1.00;1.00;;;;;;;;5059764;28;46110;-67
2022/05/21 04:53:16;;;;;;;;;3.25;3.25;;;;;;;;5059540;28;45504;-67
2022/05/21 04:55:41;;;;;;;;;3.50;1.25;;;;;;;;5058781;28;45395;-67
2022/05/21 04:58:06;;;;;;;;;3.75;3.75;;;;;;;;5054751;28;45920;-67
2022/05/21 05:00:32;;;;;;;;;3.75;2.25;;;;;;;;5061476;28;46280;-67
2022/05/21 05:02:57;;;;;;;;;5.75;4.50;;;;;;;;5058686;28;45273;-66
2022/05/21 05:05:23;;;;;;;;;4.25;4.25;;;;;;;;5059408;27;45367;-66
2022/05/21 05:07:48;;;;;;;;;3.75;3.75;;;;;;;;5057849;28;45464;-67
2022/05/21 05:10:13;;;;;;;;;3.50;3.50;;;;;;;;5036973;28;46173;-67
2022/05/21 05:12:38;;;;;;;;;3.50;2.50;;;;;;;;5067865;28;45584;-66
2022/05/21 05:15:04;;;;;;;;;3.75;3.00;;;;;;;;5059673;28;45560;-66
2022/05/21 05:17:30;;;;;;;;;3.50;2.00;;;;;;;;5059547;28;45412;-67
2022/05/21 05:19:55;;;;;;;;;2.00;2.00;;;;;;;;5059353;28;46150;-66
2022/05/21 05:22:21;;;;;;;;;4.25;2.25;;;;;;;;5055951;28;45494;-66
2022/05/21 05:24:46;;;;;;;;;5.25;4.00;;;;;;;;5059573;28;45467;-66
2022/05/21 05:27:11;;;;;;;;;3.25;2.75;;;;;;;;5059679;28;45391;-65
2022/05/21 05:29:36;;;;;;;;;3.00;2.00;;;;;;;;5058191;27;45529;-66
2022/05/21 05:32:02;;;;;;;;;4.00;4.00;;;;;;;;5058849;28;45510;-66
2022/05/21 05:34:27;;;;;;;;;1.75;1.75;;;;;;;;5054789;28;45516;-68
2022/05/21 05:36:52;;;;;;;;;2.00;2.00;;;;;;;;5057934;28;45419;-67
2022/05/21 05:39:18;;;;;;;;;6.75;3.50;;;;;;;;5060022;28;46202;-67
2022/05/21 05:41:44;;;;;;;;;6.25;5.50;;;;;;;;5058202;27;45399;-66
2022/05/21 05:44:09;;;;;;;;;8.00;5.75;;;;;;;;5058594;28;45410;-67
2022/05/21 05:46:34;;;;;;;;;7.00;6.00;;;;;;;;5057166;28;45531;-66
2022/05/21 05:48:59;;;;;;;;;4.25;4.25;;;;;;;;5055891;28;47089;-66
2022/05/21 05:51:25;;;;;;;;;5.50;5.50;;;;;;;;5060731;27;45459;-66
2022/05/21 05:53:51;;;;;;;;;6.00;5.25;;;;;;;;5058610;28;45718;-66
2022/05/21 05:56:16;;;;;;;;;0.75;0.75;;;;;;;;5058151;28;45468;-66
2022/05/21 06:01:26;;;;;;;;;5.75;4.00;;;;;;;;5042096;28;45510;-66
2022/05/21 06:03:52;;;;;;;;;5.00;4.25;;;;;;;;5058095;28;45532;-66
2022/05/21 06:06:17;;;;;;;;;6.25;5.25;;;;;;;;5058856;28;45377;-67
2022/05/21 06:08:46;;;;;;;;;6.50;4.00;;;;;;;;5055415;28;46185;-68
2022/05/21 06:11:12;;;;;;;;;3.00;2.00;;;;;;;;5056564;27;45336;-66
2022/05/21 06:13:37;;;;;;;;;4.25;1.75;;;;;;;;5038636;27;45536;-66
2022/05/21 06:16:03;;;;;;;;;1.75;1.75;;;;;;;;5054923;28;45300;-66
2022/05/21 06:18:28;;;;;;;;;1.75;1.75;;;;;;;;5052227;28;45446;-66
2022/05/21 06:20:53;;;;;;;;;5.50;3.75;;;;;;;;5037146;28;45318;-67
2022/05/21 06:23:19;;;;;;;;;2.25;1.75;;;;;;;;5033157;28;45304;-66
2022/05/21 06:25:44;;;;;;;;;2.00;1.25;;;;;;;;5040608;28;45531;-67
2022/05/21 06:28:09;;;;;;;;;3.00;0.75;;;;;;;;5040198;28;46226;-66
2022/05/21 06:30:37;;;;;;;;;1.25;1.25;;;;;;;;5040380;28;45516;-67
2022/05/21 06:33:11;;;;;;;;;4.25;4.25;;;;;;;;5038844;28;45620;-67
2022/05/21 06:35:36;;;;;;;;;5.50;3.00;;;;;;;;5036282;28;45484;-68
2022/05/21 06:38:03;;;;;;;;;2.25;2.25;;;;;;;;5039237;28;46273;-67
2022/05/21 06:40:28;;;;;;;;;4.75;4.75;;;;;;;;5040505;28;45377;-67
2022/05/21 06:42:53;;;;;;;;;11.00;9.75;;;;;;;;5039336;28;45436;-67
2022/05/21 06:45:19;;;;;;;;;3.50;3.50;;;;;;;;5039911;28;45415;-67
2022/05/21 06:47:44;;;;;;;;;2.75;2.75;;;;;;;;5035609;28;47051;-67
2022/05/21 06:50:10;;;;;;;;;3.25;3.25;;;;;;;;5039296;28;45384;-67
2022/05/21 06:52:37;;;;;;;;;4.75;4.25;;;;;;;;5039730;28;45562;-67
2022/05/21 06:55:02;;;;;;;;;2.75;2.75;;;;;;;;5044945;28;45548;-68
2022/05/21 06:57:28;;;;;;;;;3.00;3.00;;;;;;;;5048145;28;45995;-67
2022/05/21 06:59:53;;;;;;;;;3.00;3.00;;;;;;;;5044942;28;45635;-66
2022/05/21 07:02:18;;;;;;;;;4.00;4.00;;;;;;;;5051873;28;45495;-67
2022/05/21 07:07:34;;;;;;;;;4.00;3.00;;;;;;;;5050723;28;45777;-67
2022/05/21 07:10:01;;;;;;;;;5.25;2.50;;;;;;;;5051645;28;45467;-67
2022/05/21 07:12:27;;;;;;;;;7.00;3.75;;;;;;;;5052860;28;45394;-67
2022/05/21 07:14:52;;;;;;;;;3.50;3.50;;;;;;;;5050947;28;45454;-67
2022/05/21 07:17:17;;;;;;;;;5.50;5.00;;;;;;;;5051947;28;46339;-67
2022/05/21 07:19:43;;;;;;;;;6.25;5.00;;;;;;;;5052063;28;45276;-68
2022/05/21 07:22:09;;;;;;;;;9.25;7.00;;;;;;;;5048219;28;45329;-67
2022/05/21 07:24:37;;;;;;;;;4.25;4.00;;;;;;;;5052714;28;45332;-67
2022/05/21 07:27:03;;;;;;;;;3.75;3.00;;;;;;;;5050758;28;46376;-67
2022/05/21 07:29:28;;;;;;;;;2.25;1.75;;;;;;;;5050731;28;47303;-67
2022/05/21 07:31:53;;;;;;;;;3.25;3.25;;;;;;;;5049795;28;45335;-67
2022/05/21 07:34:18;;;;;;;;;3.50;3.50;;;;;;;;5051135;28;45349;-66
2022/05/21 07:36:44;;;;;;;;;2.25;2.00;;;;;;;;5051944;28;46990;-66
2022/05/21 07:39:09;;;;;;;;;2.00;2.00;;;;;;;;5050772;28;45422;-67
2022/05/21 07:41:34;;;;;;;;;4.00;3.00;;;;;;;;5050944;28;45433;-67
2022/05/21 07:43:59;;;;;;;;;1.50;1.25;;;;;;;;5052117;28;45543;-67
2022/05/21 07:46:24;;;;;;;;;2.00;2.00;;;;;;;;5050569;28;46336;-67
2022/05/21 07:48:50;;;;;;;;;4.00;3.00;;;;;;;;5051404;28;45470;-67
2022/05/21 07:51:16;;;;;;;;;3.75;1.00;;;;;;;;5051217;28;45725;-66
2022/05/21 07:53:42;;;;;;;;;1.00;1.00;;;;;;;;5052368;28;45402;-67
2022/05/21 07:56:13;;;;;;;;;2.75;2.00;;;;;;;;5055205;28;45974;-67
2022/05/21 07:58:39;;;;;;;;;1.00;1.00;;;;;;;;5054086;28;45432;-66
2022/05/21 08:01:04;;;;;;;;;1.00;1.00;;;;;;;;5053782;28;45487;-67
2022/05/21 08:03:30;;;;;;;;;2.00;2.00;;;;;;;;5056069;28;45333;-66
2022/05/21 08:05:55;;;;;;;;;1.00;1.00;;;;;;;;5047638;28;45550;-67
2022/05/21 08:08:21;;;;;;;;;3.25;1.75;;;;;;;;5046875;28;45317;-67
2022/05/21 08:10:46;;;;;;;;;2.00;1.75;;;;;;;;5045266;28;45325;-67
2022/05/21 08:13:12;;;;;;;;;2.00;2.00;;;;;;;;5047879;28;45477;-66
2022/05/21 08:15:38;;;;;;;;;3.25;1.50;;;;;;;;5045067;28;46255;-67
2022/05/21 08:18:04;;;;;;;;;2.00;1.25;;;;;;;;5046319;28;45597;-67
2022/05/21 08:20:30;;;;;;;;;2.00;2.00;;;;;;;;5042590;28;45361;-69
2022/05/21 08:28:23;;;;;;;;;0.50;0.00;;;;;;;;5045863;28;45445;-68
2022/05/21 08:30:48;;;;;;;;;1.00;1.00;;;;;;;;5045566;28;45478;-68
2022/05/21 08:33:14;;;;;;;;;3.00;3.00;;;;;;;;5045647;28;45257;-67
2022/05/21 08:35:40;;;;;;;;;4.50;3.00;;;;;;;;5044075;28;48118;-68
2022/05/21 08:38:06;;;;;;;;;3.25;1.50;;;;;;;;5044925;28;45500;-68
2022/05/21 08:40:57;;;;;;;;;1.75;1.25;;;;;;;;5043438;28;45456;-68
2022/05/21 08:43:35;;;;;;;;;18.00;11.25;;;;;;;;5043028;28;45502;-68
2022/05/21 08:46:07;;;;;;;;;1.00;1.00;;;;;;;;5044025;28;46178;-67
2022/05/21 08:48:32;;;;;;;;;1.00;1.00;;;;;;;;5044891;28;45506;-68
2022/05/21 08:50:58;;;;;;;;;4.00;2.50;;;;;;;;5044332;28;46132;-68
2022/05/21 08:53:25;;;;;;;;;1.00;1.00;;;;;;;;5046594;28;45456;-67
2022/05/21 08:55:52;;;;;;;;;1.50;1.50;;;;;;;;5043754;28;46680;-67
2022/05/21 08:58:20;;;;;;;;;1.50;1.25;;;;;;;;5055791;28;46082;-67
2022/05/21 09:00:47;;;;;;;;;1.25;0.25;;;;;;;;5062911;28;45507;-67
2022/05/21 09:03:14;;;;;;;;;1.25;1.00;;;;;;;;5047797;28;45359;-67
2022/05/21 09:05:42;;;;;;;;;1.75;1.75;;;;;;;;5059954;28;46785;-67
2022/05/21 09:08:10;;;;;;;;;4.00;3.00;;;;;;;;5064619;27;45497;-67
2022/05/21 09:10:43;;;;;;;;;2.00;2.00;;;;;;;;5051633;28;45443;-67
2022/05/21 09:13:20;;;;;;;;;3.00;2.00;;;;;;;;5058439;27;45400;-68
2022/05/21 09:18:32;;;;;;;;;2.00;1.00;;;;;;;;5066005;28;45432;-68
2022/05/21 09:20:58;;;;;;;;;2.00;1.00;;;;;;;;5060164;28;45606;-68
2022/05/21 09:23:23;;;;;;;;;1.00;1.00;;;;;;;;5057259;28;45484;-67
2022/05/21 09:26:05;;;;;;;;;2.00;0.50;;;;;;;;5051196;28;46237;-68
2022/05/21 09:28:31;;;;;;;;;2.25;1.75;;;;;;;;5044529;28;45459;-68
2022/05/21 09:30:57;;;;;;;;;2.00;1.00;;;;;;;;5040090;28;45351;-70
2022/05/21 09:33:23;;;;;;;;;1.00;1.00;;;;;;;;5055370;28;45656;-72
2022/05/21 09:35:55;;;;;;;;;4.00;2.00;;;;;;;;5053564;28;46203;-68
2022/05/21 09:38:39;;;;;;;;;3.00;3.00;;;;;;;;5057249;28;45784;-67
2022/05/21 09:41:20;;;;;;;;;2.00;2.00;;;;;;;;5059934;28;45480;-68
2022/05/21 09:46:42;;;;;;;;;5.00;2.67;;;;;;;;5059766;27;45549;-68
2022/05/21 09:49:12;;;;;;;;;2.33;1.67;;;;;;;;5058867;28;45485;-67
2022/05/21 09:51:40;;;;;;;;;1.67;1.67;;;;;;;;5054053;28;45364;-69
2022/05/21 09:54:18;;;;;;;;;3.67;1.33;;;;;;;;5053600;28;45487;-68
2022/05/21 09:56:48;;;;;;;;;1.00;1.00;;;;;;;;5042775;28;45555;-67
2022/05/21 09:59:15;;;;;;;;;5.00;1.67;;;;;;;;5048649;28;45494;-67
2022/05/21 10:01:45;;;;;;;;;2.33;1.00;;;;;;;;5043910;28;45593;-67
2022/05/21 10:04:19;;;;;;;;;3.67;3.00;;;;;;;;5043756;28;45518;-67
2022/05/21 10:07:03;;;;;;;;;1.33;1.00;;;;;;;;5052419;28;47254;-68
2022/05/21 10:12:32;;;;;;;;;2.00;1.00;;;;;;;;5051013;28;45415;-69
2022/05/21 10:15:08;;;;;;;;;2.67;2.67;;;;;;;;5056529;28;45469;-66
2022/05/21 10:17:35;;;;;;;;;2.33;1.00;;;;;;;;5053207;28;46262;-68
2022/05/21 10:20:03;;;;;;;;;3.00;2.00;;;;;;;;5049886;28;45422;-68
2022/05/21 10:22:50;;;;;;;;;2.00;1.00;;;;;;;;5056598;28;45557;-68
2022/05/21 10:25:19;;;;;;;;;6.00;6.00;;;;;;;;5036999;28;45470;-68
2022/05/21 10:27:51;;;;;;;;;2.33;2.33;;;;;;;;5050940;28;46711;-68
2022/05/21 10:30:23;;;;;;;;;3.00;2.00;;;;;;;;5049093;28;45383;-68
2022/05/21 10:33:01;;;;;;;;;4.67;4.00;;;;;;;;5048773;28;45531;-68
2022/05/21 10:35:33;;;;;;;;;6.67;5.67;;;;;;;;5048444;28;45478;-68
2022/05/21 10:38:08;;;;;;;;;5.75;5.75;;;;;;;;5047974;28;47189;-68
2022/05/21 10:40:51;;;;;;;;;6.25;5.00;;;;;;;;5051176;28;45455;-68
2022/05/21 10:43:25;;;;;;;;;9.25;5.00;;;;;;;;5036835;28;45387;-68
2022/05/21 10:46:03;;;;;;;;;8.67;5.33;;;;;;;;5050678;28;45458;-69
2022/05/21 10:48:28;;;;;;;;;4.25;4.25;;;;;;;;5050344;28;45366;-68
2022/05/21 10:51:12;;;;;;;;;6.00;5.00;;;;;;;;5063700;27;45291;-66
2022/05/21 10:53:40;;;;;;;;;4.00;4.00;;;;;;;;5048293;28;45226;-68
2022/05/21 10:56:23;;;;;;;;;4.00;4.00;;;;;;;;5048074;28;45565;-67
2022/05/21 10:58:48;;;;;;;;;7.67;5.00;;;;;;;;5056590;28;45307;-67
2022/05/21 11:01:32;;;;;;;;;6.67;5.00;;;;;;;;5053073;28;45589;-67
2022/05/21 11:03:58;;;;;;;;;4.00;3.00;;;;;;;;5067343;27;45499;-67
2022/05/21 11:06:23;;;;;;;;;2.00;2.00;;;;;;;;5058438;28;45279;-67
2022/05/21 11:08:55;;;;;;;;;7.33;4.00;;;;;;;;5056288;28;47089;-67
2022/05/21 11:11:21;;;;;;;;;3.67;3.67;;;;;;;;5056008;28;45458;-68
2022/05/21 11:13:57;;;;;;;;;2.00;2.00;;;;;;;;5055626;28;45401;-68
2022/05/21 11:16:32;;;;;;;;;7.33;5.00;;;;;;;;5038272;28;45390;-68
2022/05/21 11:19:02;;;;;;;;;3.67;3.67;;;;;;;;5054765;28;46674;-68
2022/05/21 11:21:34;;;;;;;;;5.67;5.67;;;;;;;;5056612;28;45359;-68
2022/05/21 11:24:02;;;;;;;;;3.00;3.00;;;;;;;;5056482;28;45462;-68
2022/05/21 11:26:34;;;;;;;;;4.33;4.33;;;;;;;;5056416;28;45363;-68
2022/05/21 11:29:04;;;;;;;;;2.33;2.33;;;;;;;;5054403;28;46119;-68
2022/05/21 11:37:34;;;;;;;;;2.67;2.00;;;;;;;;5005588;28;46069;-67
2022/05/21 11:40:01;;;;;;;;;8.00;6.67;;;;;;;;5007244;28;46206;-67
2022/05/21 11:42:31;;;;;;;;;3.67;3.00;;;;;;;;5007116;28;45510;-67
2022/05/21 11:45:11;;;;;;;;;5.00;5.00;;;;;;;;5004771;28;45360;-68
2022/05/21 11:47:36;;;;;;;;;4.67;4.67;;;;;;;;5004843;28;45504;-68
2022/05/21 11:50:01;;;;;;;;;5.00;5.00;;;;;;;;5003823;28;46911;-68
2022/05/21 11:52:26;;;;;;;;;2.33;2.33;;;;;;;;5005057;28;45548;-68
2022/05/21 11:54:54;;;;;;;;;1.00;1.00;;;;;;;;5009505;28;45569;-68
2022/05/21 11:57:28;;;;;;;;;2.33;2.33;;;;;;;;5007336;28;45409;-68
2022/05/21 11:59:54;;;;;;;;;2.00;2.00;;;;;;;;5004721;28;46277;-68
2022/05/21 12:02:26;;;;;;;;;3.33;1.33;;;;;;;;5004755;28;45554;-68
2022/05/21 12:04:52;;;;;;;;;2.67;2.67;;;;;;;;5005033;28;45561;-68
2022/05/21 12:07:41;;;;;;;;;2.67;2.33;;;;;;;;5004764;28;45422;-68
2022/05/21 12:10:29;;;;;;;;;4.00;4.00;;;;;;;;4970064;28;46390;-68
2022/05/21 12:13:01;;;;;;;;;2.67;2.67;;;;;;;;5038067;28;45420;-68
2022/05/21 12:15:46;;;;;;;;;5.33;4.67;;;;;;;;5055429;28;45442;-68
2022/05/21 12:18:32;;;;;;;;;0.33;0.33;;;;;;;;5054955;28;45626;-68
2022/05/21 12:20:58;;;;;;;;;2.00;2.00;;;;;;;;5055178;28;46184;-67
2022/05/21 12:23:26;;;;;;;;;3.00;3.00;;;;;;;;5055541;28;45367;-68
2022/05/21 12:25:56;;;;;;;;;3.00;3.00;;;;;;;;5055583;28;45743;-68
2022/05/21 12:28:22;;;;;;;;;1.00;1.00;;;;;;;;5052092;28;45387;-68
2022/05/21 12:30:57;;;;;;;;;1.67;1.67;;;;;;;;5056160;28;45298;-68
2022/05/21 12:33:26;;;;;;;;;1.33;1.33;;;;;;;;5055074;28;45526;-68
2022/05/21 12:35:59;;;;;;;;;1.00;1.00;;;;;;;;5055865;28;45879;-67
2022/05/21 12:38:29;;;;;;;;;4.33;3.00;;;;;;;;5055219;28;45484;-69
2022/05/21 12:41:23;;;;;;;;;2.00;2.00;;;;;;;;5056189;28;46194;-68
2022/05/21 12:43:50;;;;;;;;;1.00;1.00;;;;;;;;5044982;28;45542;-68
2022/05/21 12:46:22;;;;;;;;;1.33;1.33;;;;;;;;5054657;28;45297;-70
2022/05/21 12:48:47;;;;;;;;;6.00;5.67;;;;;;;;5068631;27;45312;-68
2022/05/21 12:51:22;;;;;;;;;4.00;3.00;;;;;;;;5058733;28;47161;-68
2022/05/21 12:53:49;;;;;;;;;1.67;0.67;;;;;;;;5058402;27;45545;-68
2022/05/21 12:56:34;;;;;;;;;2.33;2.33;;;;;;;;5058438;28;45318;-67
2022/05/21 12:59:16;;;;;;;;;3.67;3.00;;;;;;;;5059016;28;45359;-68
2022/05/21 13:01:51;;;;;;;;;1.00;1.00;;;;;;;;5057494;28;47206;-67
2022/05/21 13:04:27;;;;;;;;;1.00;1.00;;;;;;;;5038537;28;47474;-68
2022/05/21 13:06:55;;;;;;;;;3.67;3.67;;;;;;;;5069033;27;45423;-67
2022/05/21 13:09:20;;;;;;;;;0.33;0.33;;;;;;;;5059773;28;45354;-67
2022/05/21 13:11:45;;;;;;;;;3.67;2.67;;;;;;;;5058309;28;47225;-68
2022/05/21 13:14:13;;;;;;;;;5.00;5.00;;;;;;;;5057787;28;45383;-69
2022/05/21 13:16:50;;;;;;;;;3.00;3.00;;;;;;;;5056964;28;45395;-67
2022/05/21 13:19:28;;;;;;;;;1.33;1.00;;;;;;;;5038548;28;45426;-67
2022/05/21 13:22:00;;;;;;;;;1.33;1.33;;;;;;;;5068454;28;47505;-68
2022/05/21 13:24:28;;;;;;;;;2.00;2.00;;;;;;;;5041596;28;45673;-67
2022/05/21 13:27:02;;;;;;;;;2.33;2.33;;;;;;;;5058467;28;45399;-68
2022/05/21 13:29:28;;;;;;;;;2.00;2.00;;;;;;;;5058359;28;45331;-68
2022/05/21 13:32:13;;;;;;;;;3.00;3.00;;;;;;;;5058149;28;46386;-68
2022/05/21 13:34:38;;;;;;;;;3.00;3.00;;;;;;;;5038242;28;45662;-67
2022/05/21 13:37:04;;;;;;;;;1.00;1.00;;;;;;;;5037079;28;45555;-67
2022/05/21 13:39:34;;;;;;;;;1.00;1.00;;;;;;;;5060063;28;45470;-67
2022/05/21 13:42:08;;;;;;;;;5.33;4.67;;;;;;;;5057487;28;47312;-67
2022/05/21 13:44:37;;;;;;;;;2.67;2.67;;;;;;;;5057865;28;45471;-68
2022/05/21 13:47:05;;;;;;;;;1.67;1.67;;;;;;;;5058148;28;45531;-68
2022/05/21 13:49:35;;;;;;;;;1.00;1.00;;;;;;;;5055757;28;45543;-67
2022/05/21 13:52:02;;;;;;;;;3.00;3.00;;;;;;;;5054933;28;46382;-67
2022/05/21 13:54:30;;;;;;;;;3.67;2.00;;;;;;;;5059867;28;45535;-67
2022/05/21 13:57:21;;;;;;;;;2.25;1.25;;;;;;;;5058162;28;45415;-67
2022/05/21 13:59:48;;;;;;;;;1.75;1.50;;;;;;;;5054696;27;45428;-67
2022/05/21 14:02:19;;;;;;;;;6.75;5.75;;;;;;;;5057704;28;46695;-67
2022/05/21 14:04:44;;;;;;;;;2.00;2.00;;;;;;;;5057115;27;45320;-69
2022/05/21 14:07:21;;;;;;;;;2.25;1.25;;;;;;;;5054095;28;45499;-68
2022/05/21 14:09:47;;;;;;;;;0.00;0.00;;;;;;;;5068213;27;45407;-68
2022/05/21 14:12:33;;;;;;;;;0.67;0.67;;;;;;;;5057997;28;46146;-68
2022/05/21 14:15:00;;;;;;;;;5.25;5.25;;;;;;;;5057409;28;45432;-68
2022/05/21 14:17:33;;;;;;;;;1.25;1.25;;;;;;;;5057955;28;45553;-68
2022/05/21 14:20:04;;;;;;;;;1.67;1.33;;;;;;;;5058114;28;45490;-68
2022/05/21 14:22:30;;;;;;;;;0.00;0.00;;;;;;;;5054885;28;46874;-68
2022/05/21 14:25:13;;;;;;;;;1.00;1.00;;;;;;;;5056654;28;45391;-68
2022/05/21 14:27:53;;;;;;;;;1.00;1.00;;;;;;;;5057952;28;45498;-68
2022/05/21 14:30:28;;;;;;;;;4.33;2.00;;;;;;;;5061794;27;45383;-68
2022/05/21 14:32:53;;;;;;;;;2.00;2.00;;;;;;;;5057535;28;46661;-68
2022/05/21 14:35:21;;;;;;;;;0.00;0.00;;;;;;;;5062979;27;45613;-68
2022/05/21 14:37:47;;;;;;;;;0.00;0.00;;;;;;;;5061083;28;45436;-68
2022/05/21 14:40:13;;;;;;;;;1.00;1.00;;;;;;;;5060664;28;45392;-68
2022/05/21 14:42:38;;;;;;;;;1.75;0.75;;;;;;;;5063425;28;46931;-69
2022/05/21 14:45:11;;;;;;;;;1.00;1.00;;;;;;;;5062396;27;45450;-68
2022/05/21 14:47:51;;;;;;;;;1.00;1.00;;;;;;;;5052129;28;45577;-68
2022/05/21 14:53:01;;;;;;;;;1.00;1.00;;;;;;;;5057957;28;45534;-68
2022/05/21 14:55:26;;;;;;;;;2.00;1.00;;;;;;;;5059080;28;45545;-68
2022/05/21 14:57:52;;;;;;;;;1.00;0.50;;;;;;;;5060510;28;45755;-68
2022/05/21 15:00:18;;;;;;;;;1.00;1.00;;;;;;;;5059171;28;45253;-68
2022/05/21 15:02:44;;;;;;;;;2.25;1.75;;;;;;;;5057347;28;47021;-68
2022/05/21 15:05:09;;;;;;;;;0.33;0.33;;;;;;;;5060098;27;45372;-68
2022/05/21 15:07:37;;;;;;;;;0.33;0.33;;;;;;;;5053537;28;45626;-68
2022/05/21 15:10:03;;;;;;;;;4.67;3.67;;;;;;;;5051907;28;45310;-67
2022/05/21 15:12:28;;;;;;;;;1.00;1.00;;;;;;;;5052894;28;47271;-66
2022/05/21 15:14:54;;;;;;;;;1.00;1.00;;;;;;;;5051202;28;45508;-67
2022/05/21 15:17:19;;;;;;;;;2.00;1.33;;;;;;;;5051272;28;45430;-73
2022/05/21 15:19:44;;;;;;;;;2.00;1.67;;;;;;;;5052387;28;45507;-67
2022/05/21 15:22:15;;;;;;;;;1.67;1.67;;;;;;;;5045436;28;45407;-68
2022/05/21 15:24:40;;;;;;;;;0.67;0.67;;;;;;;;5050540;28;45432;-68
2022/05/21 15:27:06;;;;;;;;;3.00;3.00;;;;;;;;5050645;28;45465;-67